22  °C
Temperature
72  °F
Temperature
57  °F
 Dewpoint
14  °C
  Dewpoint
61  %
 Humidity
  Temperature
0  km/h
Wind Speed
0  kts
Wind Speed
0  mph
Wind Speed
0  m/s
Wind Speed
Calm
Due North

Wind Speed
Clear
Conditions
Pressure 1014.92 (hPa) - 29.97 (inHG)
Visibility 10.0 (km) - 6.2 (mi)

Sky Conditions
LGSA
Location Chania International 80 km (49.72 mi)
Metar :LGSA 170550Z 00000KT CAVOK 22/14 Q1015
Tue 17th September 08:50 am

Nearest Airport
https://www.checkwx.com/weather/LGSA
  Metar Aviation API Data Provided by https://www.checkwx.com/ Original CSS/SVG/PHP scripts by weather34.com © 2015-2019